Aviation Digital Data Service (ADDS)

Output produced by METARs form (1727 UTC 23 January 2019)
found at http://aviationweather.gov/metar/data/
 
CYYZ 231700Z 15006KT 1 1/4SM -RA BR SCT003 OVC007 02/01 A2977 RMK SF4SC4 PRESFR SLP088
CYYZ 231649Z 15007KT 2 1/2SM R23/3500VP6000FT/U -RA BR SCT003 OVC008 02/01 A2978 RMK SF3SC5 SLP093
CYYZ 231600Z 15005KT 4SM -RA BR FEW004 OVC009 02/00 A2982 RMK SF2SC6 SLP106
CYYZ 231550Z 14005KT 4SM -RA BR FEW004 OVC009 01/00 A2982 RMK SF2SC6 SLP108
CYYZ 231500Z 12004KT 4SM -RASN FEW006 OVC011 01/M00 A2984 RMK SF2SC6 SLP114
TAF CYYZ 231438Z 2315/2418 15005KT 2SM -RASN OVC006 
     TEMPO 2315/2316 6SM -RAPL BR OVC012 
     PROB40 2315/2316 2SM -FZRA BR 
     FM231600 18010KT 2SM -RA BR OVC006 
     TEMPO 2316/2318 6SM -RA BR SCT006 OVC012 
     FM231800 19010G20KT 2SM -RA BR OVC005 
     PROB30 2318/2320 OVC003 
     FM232000 19015G25KT 3SM -RA BR OVC008 
     FM240000 21018G30KT 5SM -RA BR BKN009 OVC020 
     FM240100 23020G35KT P6SM BKN020 OVC100 
     FM240300 24020G30KT P6SM FEW020 SCT100 OVC180 
     FM240600 26012G22KT P6SM -RA BKN020 OVC050 
     FM240900 29012KT 21/2SM -SN BKN020 OVC050 
     FM241200 30012KT P6SM BKN025 
     BECMG 2412/2414 30012G22KT RMK NXT FCST BY 231800Z
       
CYKF 231705Z AUTO 17008G15KT 6SM -RA BR OVC004 02/02 A2972 RMK PRESFR SLP076
CYKF 231700Z AUTO 18009G15KT 4SM -RA BR OVC004 02/02 A2973 RMK PRESFR SLP079
CYKF 231628Z AUTO 17009KT 5SM -RA BR OVC004 02/01 A2975 RMK SLP089
CYKF 231600Z AUTO 17009KT 8SM -RA OVC004 01/01 A2978 RMK SLP098
CYKF 231540Z AUTO 17009KT 8SM -RA OVC004 01/01 A2978 RMK SLP100
CYKF 231534Z AUTO 17008KT 6SM -RASN OVC004 01/01 A2979 RMK SLP102
CYKF 231527Z AUTO 18008KT 6SM -SN OVC004 01/01 A2979 RMK SLP103
CYKF 231500Z AUTO 18009KT 4SM -SN OVC004 01/01 A2980 RMK ICG PAST HR SLP106
CYKF 231438Z AUTO 18008KT 5SM -SN -UP OVC004 01/00 A2981 RMK ICG PAST HR PRESFR SLP109
TAF AMD CYKF 231630Z 2316/2402 17012KT 6SM -RA BR OVC006 
     TEMPO 2316/2321 2SM -RA BR OVC004 
     BECMG 2317/2318 19015G25KT 
     FM232100 21020G35KT 2SM -RA BR OVC006 
     TEMPO 2321/2402 6SM -RA BR OVC010 
     BECMG 2400/2402 24018G28KT RMK FCST BASED ON AUTO OBS. NXT FCST BY 232000Z
       
CYBN 231700Z AUTO 14009KT 1SM +UP VV004 01/01 A2973 RMK PCPN 0.5MM PAST HR SLP078
CYBN 231651Z AUTO 15009KT 1 1/4SM UP OVC004 01/01 A2974
CYBN 231644Z AUTO 15009KT 1 3/4SM -UP OVC004 01/01 A2975
CYBN 231641Z AUTO 15009KT 1 1/4SM -UP OVC005 01/01 A2974
CYBN 231625Z AUTO 15007KT 1 1/4SM UP VV004 01/01 A2976
CYBN 231622Z AUTO 14008KT 1 1/4SM UP VV005 01/01 A2976
CYBN 231609Z AUTO 14010KT 1 1/4SM UP VV004 01/01 A2977
CYBN 231600Z AUTO 15009KT 1 3/4SM -UP BKN004 OVC015 01/01 A2978 RMK SLP096
CYBN 231556Z AUTO 16009KT 2SM -UP BKN004 OVC015 01/01 A2978
CYBN 231553Z AUTO 15009KT 2 1/2SM -UP OVC015 01/01 A2978
CYBN 231542Z AUTO 15009KT 3SM -UP BKN005 OVC015 01/01 A2979
CYBN 231538Z AUTO 15009KT 3SM -UP VV004 01/01 A2979
CYBN 231504Z AUTO 15009KT 1SM -UP VV004 01/01 A2981
CYBN 231500Z AUTO 15009KT 3/4SM -UP VV004 00/00 A2981 RMK PCPN 0.5MM PAST HR SLP104
CYBN 231457Z AUTO 15009KT 3/4SM -UP VV005 00/00 A2981
CYBN 231456Z AUTO 15008KT 3/4SM -UP VV004 00/00 A2981
CYBN 231448Z AUTO 16009KT 1 1/4SM -UP OVC004 00/00 A2982
CYBN 231444Z AUTO 16008KT 1 1/4SM -UP FEW004 OVC015 00/00 A2982
CYBN 231434Z AUTO 15007KT 2 1/4SM -UP OVC015 00/00 A2982
TAF AMD CYBN 231705Z 2317/2324 14010KT 1SM -RASN BR OVC004 
     TEMPO 2317/2320 3SM -RA BR OVC009 
     FM232000 17010G20KT 2SM -RA BR OVC010 RMK FCST BASED ON AUTO OBS. NXT FCST
BY 231800Z
       
CYXU 231700Z 19015G22KT 3SM -RA BR OVC004 03/03 A2970 RMK NS8 PRESFR SLP070
CYXU 231640Z 18013KT 3SM -RA BR OVC003 03/03 A2973 RMK NS8 PRESFR SLP080
CYXU 231610Z 17010KT 2SM -RA BR OVC002 02/02 A2976 RMK NS8 SLP090
CYXU 231600Z 16010KT 1SM R15/6000FT/D -RA BR OVC002 02/02 A2976 RMK NS8 SLP091
CYXU 231516Z 16010KT 2 1/2SM -RA BR OVC002 01/01 A2979 RMK NS8 PRESFR SLP099
CYXU 231508Z 17010KT 3SM -RA BR OVC002 01/01 A2980 RMK NS8 SLP102
CYXU 231500Z 16008KT 3SM -RA BR OVC003 01/01 A2980 RMK NS8 SLP104
TAF CYXU 231140Z 2312/2412 18012KT 4SM -RA BR OVC004 
     TEMPO 2312/2314 P6SM -RA BKN006 OVC020 
     FM231400 19015G25KT 2SM -RA BR OVC004 
     TEMPO 2314/2323 6SM -RA BR BKN006 OVC020 
     BECMG 2319/2321 21020G35KT 
     FM232300 23025G40KT 4SM -DZ BR BKN005 OVC012 
     BECMG 2400/2401 24015G30KT 
     FM240200 25012G22KT P6SM BKN008 BKN015 
     FM240800 29012G22KT P6SM SCT009 BKN020 RMK NXT FCST BY 231800Z
       
CYHM 231700Z 20013G18KT 6SM -RA BR OVC004 03/03 A2975 RMK SF8 PRESFR SLP085
CYHM 231600Z 20011KT 4SM -RA BR OVC003 02/02 A2980 RMK SF8 SLP103
CYHM 231529Z 20012KT 6SM -RA BR OVC004 02/02 A2982 RMK SF8 SLP108
CYHM 231500Z 20012KT 8SM -RASN BKN005 OVC020 02/02 A2983 RMK SF7SC1 SLP113
TAF AMD CYHM 231626Z 2316/2412 20012KT 2SM -RA BR OVC003 
     TEMPO 2316/2319 P6SM -RA OVC006 
     FM231900 20018G28KT 3SM -RA BR OVC006 
     TEMPO 2319/2323 6SM -RA BR SCT006 OVC012 
     PROB30 2319/2322 2SM -RA BR OVC005 
     FM232300 21020G35KT 4SM -RA BR BKN008 OVC015 
     FM240200 23018G28KT P6SM -RA BKN012 OVC030 
     BECMG 2404/2406 25012G22KT 
     FM240700 26012G22KT 4SM -RASN BKN015 OVC040 
     PROB30 2407/2409 4SM -SNPL 
     FM240900 27012G22KT 21/2SM -SN BKN020 OVC050 RMK NXT FCST BY 231800Z
       
CYQA 231700Z AUTO 13008KT 3/4SM -SN BKN004 OVC011 M00/M01 A2973 RMK ICG PRESFR SLP084
CYQA 231633Z AUTO 14007KT 1SM -SN OVC004 M00/M01 A2976 RMK ICG SLP093
CYQA 231625Z AUTO 15007KT 1 1/4SM -SN -FZUP OVC004 M00/M01 A2976 RMK ICG SLP095
CYQA 231623Z AUTO 13006KT 1 3/4SM -SN -FZUP OVC004 M00/M01 A2976 RMK ICG SLP095
CYQA 231621Z AUTO 14006KT 2 1/4SM -SN OVC004 M00/M01 A2976 RMK ICG SLP095
CYQA 231619Z AUTO 14006KT 3SM -SN OVC004 M00/M01 A2977 RMK ICG SLP096
CYQA 231615Z AUTO 12005KT 3SM -SN OVC004 M01/M01 A2977 RMK PRESFR SLP096
CYQA 231612Z AUTO 13005KT 2 1/2SM -SN OVC004 M01/M01 A2977 RMK VIS VRB 1 3/4-3 PRESFR SLP096
CYQA 231608Z AUTO 14006KT 2 1/4SM -SN OVC004 M01/M01 A2977 RMK VIS VRB 1 1/2-3 SLP098
CYQA 231600Z AUTO 14007KT 2 1/2SM -SN OVC004 M01/M01 A2978 RMK SLP102
CYQA 231548Z AUTO 13005KT 2SM -SN OVC004 M01/M01 A2979 RMK VIS VRB 1 1/4-3 PRESFR SLP103
CYQA 231546Z AUTO 13007KT 2 1/2SM -SN OVC004 M01/M01 A2979 RMK VIS VRB 1 1/4-3 SLP104
CYQA 231530Z AUTO 14006KT 3SM -SN OVC004 M01/M02 A2980 RMK SLP108
CYQA 231515Z AUTO 13006KT 3SM -SN OVC006 M01/M02 A2980 RMK SLP107
CYQA 231513Z AUTO 13006KT 2 1/2SM -SN OVC006 M01/M02 A2980 RMK PRESFR SLP108
CYQA 231509Z AUTO 13005KT 1 1/2SM -SN OVC006 M01/M02 A2980 RMK SLP108
CYQA 231500Z AUTO 15006KT 1SM -SN OVC006 M01/M02 A2981 RMK ICG PAST HR SLP112
CYQA 231458Z AUTO 15007KT 1 1/4SM -SN OVC006 M01/M02 A2981 RMK ICG PAST HR SLP113
CYQA 231455Z AUTO 14005KT 1 1/4SM -SN OVC004 M02/M02 A2981 RMK ICG PAST HR SLP111
CYQA 231448Z AUTO 14005KT 2 1/4SM -SN OVC004 M02/M02 A2981 RMK ICG PAST HR SLP113
CYQA 231433Z AUTO 14006KT 3SM -SN OVC004 M02/M02 A2982 RMK ICG PAST HR SLP115
TAF AMD CYQA 231410Z 2314/2401 13005KT 6SM -SN OVC008 
     TEMPO 2314/2318 2SM -FZRA BR OVC004 
     PROB30 2314/2318 1SM -SN 
     FM231800 14012KT 1SM -SN BR OVC005 
     TEMPO 2318/2322 21/2SM -SN OVC010 
     PROB30 2318/2322 2SM -FZRA BR BKN004 OVC008 
     FM232200 18012G22KT 2SM -RA BR OVC007 
     TEMPO 2322/2324 5SM -RA BR OVC015 
     FM240000 21015G25KT 3SM -RA BR BKN008 OVC020 
     TEMPO 2400/2401 6SM -RA BR OVC020 RMK FCST BASED ON AUTO OBS. NXT FCST BY
232000Z
       
CYVV 231700Z 13007KT 2SM -SN OVC012 00/M00 A2967 RMK SN2SF6 VIS VRB 1-3 SN WET/S01/ PRESFR SLP060
CYVV 231600Z 12008KT 2SM -SN OVC012 00/M00 A2972 RMK SN2SF6 VIS VRB 1-3 SN WET SLP077
CYVV 231500Z 14006KT 2SM -SN OVC012 M00/M01 A2976 RMK SN2SF6 VIS VRB 1-3 SN WET SLP091
TAF CYVV 231338Z 2314/2324 15006KT 4SM -SN OVC008 
     TEMPO 2314/2318 1SM -SN OVC004 
     PROB30 2314/2318 2SM -FZRA BR 
     FM231800 16010KT 1SM -RA -DZ BR OVC004 
     TEMPO 2318/2322 3SM -RA BR OVC008 
     BECMG 2318/2320 19010G20KT 
     FM232200 22018G28KT 3SM -RA BR BKN007 OVC012 RMK NXT FCST BY 232000Z
       
CYZR 231722Z AUTO 20013G18KT 9SM OVC005 04/03 A2964 RMK SLP045
CYZR 231700Z AUTO 19014G19KT 9SM -RA OVC005 03/03 A2965 RMK SLP047
CYZR 231600Z AUTO 17013KT 9SM -RA OVC005 02/02 A2971 RMK SLP068
CYZR 231544Z AUTO 16012KT 6SM -RA BR OVC005 02/02 A2972 RMK PRESFR SLP071
CYZR 231538Z AUTO 17012KT 5SM -RA BR OVC005 02/02 A2972 RMK SLP074
CYZR 231509Z AUTO 17013KT 7SM -RA OVC005 02/02 A2974 RMK SLP078
CYZR 231508Z AUTO 17012KT 7SM OVC005 02/02 A2974 RMK SLP078
CYZR 231500Z AUTO 17011KT 8SM -RA OVC005 02/02 A2974 RMK PRESFR SLP080
TAF AMD CYZR 231621Z 2316/2402 17015KT 6SM -RA BR OVC008 
     TEMPO 2316/2318 2SM -RA BR OVC004 
     FM231800 19015G25KT 11/2SM -RA BR OVC004 
     TEMPO 2318/2321 3SM -RA BR OVC008 
     FM232100 20015G25KT 2SM -DZ BR OVC008 
     TEMPO 2321/2402 6SM BR OVC012 RMK FCST BASED ON AUTO OBS. NXT FCST BY
232000Z
       
CYPQ 231722Z AUTO 16007KT 9SM -RA -UP OVC005 01/01 A2979 RMK SLP099
CYPQ 231700Z AUTO 17005KT 9SM -UP OVC005 01/01 A2981 RMK SLP106
CYPQ 231657Z AUTO 16005KT 8SM -UP OVC005 01/01 A2981 RMK SLP106
CYPQ 231651Z AUTO 16004KT 7SM -SN -UP OVC005 01/01 A2982 RMK SLP108
CYPQ 231649Z AUTO 16005KT 6SM -SN OVC005 01/01 A2982 RMK SLP108
CYPQ 231645Z AUTO 16006KT 3SM -SN OVC005 01/01 A2982 RMK SLP109
CYPQ 231644Z AUTO 16005KT 2 1/2SM -SN OVC005 01/01 A2983 RMK SLP110
CYPQ 231630Z AUTO 16005KT 2SM -SN OVC005 01/01 A2983 RMK SLP112
CYPQ 231625Z AUTO 15006KT 2 1/2SM -SN OVC005 01/01 A2983 RMK VIS VRB 1 1/2-3 SLP113
CYPQ 231619Z AUTO 15006KT 1 1/2SM -SN OVC005 01/01 A2984 RMK VIS VRB 3/4-3 PRESFR SLP114
CYPQ 231602Z AUTO 17007KT 1 1/4SM -SN OVC005 01/01 A2986 RMK VIS VRB 3/4-3 SLP121
CYPQ 231600Z AUTO 17008KT 1 1/2SM -SN OVC005 01/01 A2986 RMK VIS VRB 3/4-3 SLP121
CYPQ 231555Z AUTO 16006KT 2 1/4SM -SN OVC005 01/01 A2986 RMK VIS VRB 1 1/4-3 SLP123
CYPQ 231533Z AUTO 17007KT 3SM -SN OVC005 00/00 A2987 RMK SLP127
CYPQ 231526Z AUTO 18005KT 2 1/2SM -SN OVC005 00/00 A2987 RMK VIS VRB 1 1/2-3 SLP127
CYPQ 231522Z AUTO 17005KT 1 1/2SM -SN OVC005 00/00 A2987 RMK VIS VRB 5/8-3 SLP127
CYPQ 231513Z AUTO 16006KT 1 1/4SM -SN OVC005 00/00 A2987 RMK VIS VRB 1-1 3/4 SLP126
CYPQ 231500Z AUTO 17007KT 1 1/2SM -SN OVC005 00/00 A2987 RMK ICG PAST HR SLP127
TAF CYPQ 231339Z 2314/2402 17008KT 1SM -SN BKN005 OVC012 
     TEMPO 2314/2317 3SM -SNPL SCT007 OVC012 
     FM231700 18010KT 1SM -SN -FZRA BR OVC005 
     TEMPO 2317/2318 2SM -RA BR SCT005 OVC012 
     FM231800 17010G20KT 2SM -RA BR OVC005 
     TEMPO 2318/2324 6SM -RA BR OVC008 
     FM240000 21015G25KT 6SM -RA BR OVC010 
     TEMPO 2400/2402 21/2SM -RA BR OVC008 RMK FCST BASED ON AUTO OBS. NXT FCST
BY 232000Z
       
CWLS 231700Z AUTO 17008KT 01/01 RMK AO1 1PAST HR SOG 21 8038 SLP065 P0008 T00140010 50053
CWLS 231600Z AUTO 17008KT 01/01 RMK AO1 9PAST HR SOG 21 8029 SLP083 P0007 T00070005 50032
CWLS 231500Z AUTO 18007KT M00/M00 RMK AO1 7PAST HR SOG 20 8019 SLP095 P0003 T10041002 50013
CWCO 231700Z AUTO 15006KT 01/M00 RMK AO1 3PAST HR 8035 SLP072 P0005 T00061004 50029
CWCO 231600Z AUTO 14004KT M00/M00 RMK AO1 9PAST HR 8028 SLP089 P0004 T10011002 50016
CWCO 231500Z AUTO 15004KT M00/M01 RMK AO1 5PAST HR 8025 SLP101 P0002 T10041007 50007